createdAt,value
2023-03-17T00:01:03.598Z,75.70
2023-03-17T00:04:05.875Z,76.00
2023-03-17T00:07:08.284Z,75.80
2023-03-17T00:10:19.384Z,76.10
2023-03-17T00:13:21.209Z,76.10
2023-03-17T00:16:26.958Z,74.90
2023-03-17T00:19:32.074Z,75.90
2023-03-17T00:22:33.616Z,76.00
2023-03-17T00:25:35.198Z,76.80
2023-03-17T00:28:37.175Z,76.00
2023-03-17T00:31:40.117Z,76.30
2023-03-17T00:34:41.878Z,76.40
2023-03-17T00:37:44.071Z,76.50
2023-03-17T00:40:48.843Z,76.20
2023-03-17T00:43:50.701Z,76.90
2023-03-17T00:46:56.923Z,76.70
2023-03-17T00:49:58.485Z,76.80
2023-03-17T00:53:00.080Z,76.70
2023-03-17T00:56:02.670Z,76.60
2023-03-17T00:59:04.592Z,76.80
2023-03-17T01:02:07.091Z,76.90
2023-03-17T01:05:08.794Z,76.90
2023-03-17T01:08:10.391Z,77.20
2023-03-17T01:11:18.669Z,76.90
2023-03-17T01:14:20.389Z,77.20
2023-03-17T01:17:22.051Z,76.90
2023-03-17T01:20:27.953Z,77.20
2023-03-17T01:23:29.792Z,77.00
2023-03-17T01:26:31.377Z,76.80
2023-03-17T01:29:34.726Z,76.70
2023-03-17T01:32:36.291Z,76.90
2023-03-17T01:35:38.951Z,76.30
2023-03-17T01:38:41.528Z,76.70
2023-03-17T01:41:43.064Z,76.30
2023-03-17T01:45:04.365Z,76.60
2023-03-17T01:48:06.052Z,76.40
2023-03-17T01:51:11.300Z,76.50
2023-03-17T01:54:20.586Z,76.60
2023-03-17T01:57:32.758Z,77.30
2023-03-17T02:00:34.650Z,76.60
2023-03-17T02:03:36.295Z,76.60
2023-03-17T02:06:47.491Z,76.10
2023-03-17T02:09:57.960Z,76.00
2023-03-17T02:13:04.260Z,76.60
2023-03-17T02:16:06.924Z,76.50
2023-03-17T02:19:09.425Z,76.00
2023-03-17T02:22:11.473Z,76.40
2023-03-17T02:25:14.219Z,76.30
2023-03-17T02:28:21.308Z,76.30
2023-03-17T02:31:25.671Z,76.90
2023-03-17T02:34:27.243Z,77.00
2023-03-17T02:37:28.897Z,76.30
2023-03-17T02:40:30.956Z,77.20
2023-03-17T02:43:33.785Z,76.50
2023-03-17T02:46:35.669Z,76.30
2023-03-17T02:49:39.174Z,76.50
2023-03-17T02:52:40.764Z,76.80
2023-03-17T02:55:43.792Z,77.10
2023-03-17T02:58:45.453Z,76.90
2023-03-17T03:01:48.494Z,76.50
2023-03-17T03:04:50.320Z,77.90
2023-03-17T03:07:52.226Z,76.70
2023-03-17T03:10:54.890Z,76.80
2023-03-17T03:13:56.932Z,76.90
2023-03-17T03:16:58.476Z,76.70
2023-03-17T03:20:00.216Z,76.70
2023-03-17T03:23:01.893Z,76.20
2023-03-17T03:26:03.809Z,76.70
2023-03-17T03:29:05.451Z,76.50
2023-03-17T03:32:08.094Z,76.80
2023-03-17T03:35:10.538Z,76.80
2023-03-17T03:38:13.056Z,76.90
2023-03-17T03:41:14.656Z,76.70
2023-03-17T03:44:16.639Z,76.60
2023-03-17T03:47:18.341Z,76.30
2023-03-17T03:50:19.998Z,76.60
2023-03-17T03:53:21.569Z,76.80
2023-03-17T03:56:23.154Z,76.80
2023-03-17T03:59:24.772Z,77.90
2023-03-17T04:02:26.983Z,76.80
2023-03-17T04:05:28.666Z,76.70
2023-03-17T04:08:31.707Z,76.60
2023-03-17T04:11:33.331Z,77.40
2023-03-17T04:14:35.033Z,76.40
2023-03-17T04:17:37.198Z,76.50
2023-03-17T04:20:38.779Z,76.70
2023-03-17T04:23:40.453Z,76.70
2023-03-17T04:26:42.193Z,78.10
2023-03-17T04:29:44.298Z,76.60
2023-03-17T04:32:46.363Z,76.70
2023-03-17T04:35:49.603Z,77.00
2023-03-17T04:38:51.665Z,75.20
2023-03-17T04:41:53.323Z,77.80
2023-03-17T04:44:54.881Z,76.50
2023-03-17T04:47:56.470Z,76.70
2023-03-17T04:50:58.508Z,76.80
2023-03-17T04:54:00.868Z,76.50
2023-03-17T04:57:02.423Z,77.30
2023-03-17T05:00:07.299Z,76.40
2023-03-17T05:03:23.917Z,75.70
2023-03-17T05:06:27.673Z,76.30
2023-03-17T05:09:29.259Z,76.40
2023-03-17T05:12:30.992Z,76.40
2023-03-17T05:15:32.537Z,76.30
2023-03-17T05:18:34.556Z,76.50
2023-03-17T05:21:36.106Z,76.60
2023-03-17T05:24:37.655Z,77.20
2023-03-17T05:27:39.411Z,76.50
2023-03-17T05:30:42.614Z,76.30
2023-03-17T05:33:44.234Z,76.40
2023-03-17T05:36:46.425Z,76.50
2023-03-17T05:39:47.996Z,76.70
2023-03-17T05:42:51.322Z,76.90
2023-03-17T05:45:53.047Z,76.70
2023-03-17T05:48:54.737Z,76.50
2023-03-17T05:51:56.301Z,76.80
2023-03-17T05:54:58.308Z,76.70
2023-03-17T05:58:00.883Z,76.50
2023-03-17T06:01:02.466Z,77.10
2023-03-17T06:04:04.292Z,76.80
2023-03-17T06:07:06.225Z,76.60
2023-03-17T06:10:08.578Z,76.80
2023-03-17T06:13:11.044Z,76.10
2023-03-17T06:16:13.053Z,77.80
2023-03-17T06:19:14.624Z,76.70
2023-03-17T06:22:16.157Z,77.30
2023-03-17T06:25:17.981Z,76.80
2023-03-17T06:28:19.708Z,76.50
2023-03-17T06:31:22.111Z,76.50
2023-03-17T06:34:25.389Z,76.50
2023-03-17T06:37:27.561Z,76.80
2023-03-17T06:40:29.411Z,76.40
2023-03-17T06:43:31.844Z,76.30
2023-03-17T06:46:35.008Z,76.30
2023-03-17T06:49:36.694Z,74.30
2023-03-17T06:52:39.328Z,76.30
2023-03-17T06:55:41.962Z,77.00
2023-03-17T06:58:43.542Z,76.50
2023-03-17T07:01:45.683Z,76.20
2023-03-17T07:04:47.600Z,75.50
2023-03-17T07:07:50.052Z,75.30
2023-03-17T07:10:55.776Z,74.90
2023-03-17T07:13:57.434Z,74.90
2023-03-17T07:16:59.750Z,74.60
2023-03-17T07:20:01.351Z,74.70
2023-03-17T07:23:02.939Z,74.70
2023-03-17T07:26:05.046Z,74.30
2023-03-17T07:29:08.166Z,73.90
2023-03-17T07:32:10.420Z,74.50
2023-03-17T07:35:12.114Z,74.40
2023-03-17T07:38:13.831Z,74.20
2023-03-17T07:41:15.430Z,73.70
2023-03-17T07:44:17.511Z,73.80
2023-03-17T07:47:19.448Z,74.30
2023-03-17T07:50:21.251Z,73.60
2023-03-17T07:53:22.830Z,75.00
2023-03-17T07:56:24.481Z,73.80
2023-03-17T07:59:26.371Z,73.90
2023-03-17T08:02:28.086Z,80.00
2023-03-17T08:05:29.811Z,74.10
2023-03-17T08:08:31.571Z,74.40
2023-03-17T08:11:33.160Z,74.30
2023-03-17T08:14:34.775Z,74.20
2023-03-17T08:17:37.133Z,74.50
2023-03-17T08:20:39.102Z,74.70
2023-03-17T08:23:40.674Z,74.60
2023-03-17T08:26:48.073Z,74.30
2023-03-17T08:29:50.935Z,73.20
2023-03-17T08:32:53.866Z,74.40
2023-03-17T08:35:55.891Z,74.40
2023-03-17T08:38:58.083Z,74.00
2023-03-17T08:41:59.705Z,74.20
2023-03-17T08:45:01.311Z,74.90
2023-03-17T08:48:03.241Z,74.40
2023-03-17T08:51:05.310Z,74.00
2023-03-17T08:54:07.637Z,74.00
2023-03-17T08:57:09.236Z,75.50
2023-03-17T09:00:13.763Z,74.40
2023-03-17T09:03:16.147Z,73.80
2023-03-17T09:06:18.214Z,73.60
2023-03-17T09:09:20.447Z,73.40
2023-03-17T09:12:22.314Z,73.50
2023-03-17T09:15:34.439Z,72.90
2023-03-17T09:18:36.740Z,73.10
2023-03-17T09:21:38.475Z,73.10
2023-03-17T09:24:40.298Z,72.90
2023-03-17T09:27:47.175Z,73.10
2023-03-17T09:30:49.434Z,73.00
2023-03-17T09:33:52.481Z,73.20
2023-03-17T09:36:54.734Z,73.00
2023-03-17T09:39:57.973Z,72.30
2023-03-17T09:43:28.706Z,72.30
2023-03-17T09:46:42.318Z,70.60
2023-03-17T09:49:49.367Z,70.50
2023-03-17T09:52:52.203Z,71.90
2023-03-17T09:55:58.646Z,72.00
2023-03-17T09:59:05.316Z,72.00
2023-03-17T10:02:21.559Z,71.80
2023-03-17T10:05:24.971Z,72.00
2023-03-17T10:08:32.449Z,71.00
2023-03-17T10:11:42.451Z,71.00
2023-03-17T10:15:14.792Z,69.00
2023-03-17T10:18:18.354Z,69.00
2023-03-17T10:21:34.994Z,71.10
2023-03-17T10:24:42.920Z,71.10
2023-03-17T10:28:02.278Z,70.90
2023-03-17T10:31:33.211Z,69.10
2023-03-17T10:34:37.989Z,71.50
2023-03-17T10:37:41.004Z,71.70
2023-03-17T10:40:56.583Z,72.00
2023-03-17T10:43:59.294Z,71.70
2023-03-17T10:47:00.974Z,71.50
2023-03-17T10:50:21.283Z,70.70
2023-03-17T10:53:28.589Z,68.60
2023-03-17T10:56:38.656Z,70.80
2023-03-17T10:59:48.494Z,70.90
2023-03-17T11:02:58.279Z,70.90
2023-03-17T11:06:06.542Z,71.10
2023-03-17T11:09:10.887Z,70.80
2023-03-17T11:12:26.244Z,70.30
2023-03-17T11:15:46.372Z,69.90
2023-03-17T11:18:51.427Z,69.60
2023-03-17T11:22:06.230Z,69.20
2023-03-17T11:25:20.902Z,67.00
2023-03-17T11:28:28.206Z,66.70
2023-03-17T11:31:42.423Z,68.30
2023-03-17T11:35:14.071Z,68.20
2023-03-17T11:38:21.425Z,67.20
2023-03-17T11:41:24.835Z,66.90
2023-03-17T11:44:38.454Z,66.60
2023-03-17T11:48:01.137Z,68.20
2023-03-17T11:51:09.686Z,68.30
2023-03-17T11:54:38.494Z,68.10
2023-03-17T11:58:00.974Z,66.20
2023-03-17T12:01:08.941Z,66.20
2023-03-17T12:04:18.955Z,67.90
2023-03-17T12:07:23.869Z,66.30
2023-03-17T12:10:38.892Z,68.10
2023-03-17T12:13:52.258Z,65.90
2023-03-17T12:17:12.268Z,67.70
2023-03-17T12:20:25.011Z,68.00
2023-03-17T12:24:00.425Z,67.60
2023-03-17T12:27:16.736Z,66.30
2023-03-17T12:30:37.062Z,65.60
2023-03-17T12:33:49.353Z,67.00
2023-03-17T12:36:52.102Z,67.50
2023-03-17T12:40:05.185Z,67.80
2023-03-17T12:43:34.241Z,67.40
2023-03-17T12:47:09.047Z,65.10
2023-03-17T12:50:55.373Z,67.90
2023-03-17T12:53:59.495Z,66.00
2023-03-17T12:57:06.419Z,67.60
2023-03-17T13:00:29.560Z,66.90
2023-03-17T13:03:37.035Z,68.30
2023-03-17T13:06:45.271Z,68.10
2023-03-17T13:10:18.290Z,67.40
2023-03-17T13:13:36.370Z,65.70
2023-03-17T13:16:41.124Z,65.60
2023-03-17T13:20:07.523Z,67.20
2023-03-17T13:23:21.564Z,65.30
2023-03-17T13:27:04.637Z,66.80
2023-03-17T13:30:27.734Z,65.40
2023-03-17T13:33:32.465Z,65.30
2023-03-17T13:36:53.245Z,66.80
2023-03-17T13:40:11.077Z,64.80
2023-03-17T13:43:43.361Z,66.20
2023-03-17T13:46:47.233Z,64.50
2023-03-17T13:49:53.880Z,66.20
2023-03-17T13:53:04.602Z,67.10
2023-03-17T13:56:26.999Z,66.70
2023-03-17T13:59:40.466Z,66.50
2023-03-17T14:02:43.147Z,65.90
2023-03-17T14:05:49.583Z,66.50
2023-03-17T14:09:08.000Z,65.90
2023-03-17T14:12:32.372Z,64.50
2023-03-17T14:15:41.908Z,65.00
2023-03-17T14:18:50.333Z,65.00
2023-03-17T14:21:51.876Z,66.40
2023-03-17T14:24:55.852Z,66.20
2023-03-17T14:27:58.742Z,66.10
2023-03-17T14:31:02.932Z,66.40
2023-03-17T14:34:04.515Z,66.30
2023-03-17T14:37:06.132Z,66.50
2023-03-17T14:40:22.839Z,66.80
2023-03-17T14:43:25.690Z,66.80
2023-03-17T14:46:35.824Z,66.90
2023-03-17T14:49:37.367Z,65.20
2023-03-17T14:52:41.090Z,67.00
2023-03-17T14:55:43.604Z,66.30
2023-03-17T14:58:48.335Z,66.00
2023-03-17T15:01:55.260Z,65.70
2023-03-17T15:05:01.232Z,65.90
2023-03-17T15:08:03.701Z,66.60
2023-03-17T15:11:06.809Z,66.40
2023-03-17T15:14:34.658Z,67.30
2023-03-17T15:17:37.030Z,65.00
2023-03-17T15:20:39.218Z,65.80
2023-03-17T15:23:41.085Z,65.60
2023-03-17T15:26:42.655Z,65.50
2023-03-17T15:29:45.570Z,65.40
2023-03-17T15:33:33.779Z,65.80
2023-03-17T15:36:35.385Z,67.20
2023-03-17T15:39:36.953Z,67.10
2023-03-17T15:42:39.602Z,68.70
2023-03-17T15:45:43.018Z,67.00
2023-03-17T15:48:44.633Z,67.80
2023-03-17T15:51:46.494Z,67.60
2023-03-17T15:54:49.238Z,69.00
2023-03-17T15:57:55.095Z,67.90
2023-03-17T16:00:59.094Z,68.70
2023-03-17T16:04:00.747Z,68.20
2023-03-17T16:07:02.347Z,68.30
2023-03-17T16:10:16.546Z,68.30
2023-03-17T16:13:18.683Z,68.50
2023-03-17T16:16:39.519Z,68.10
2023-03-17T16:19:41.138Z,67.00
2023-03-17T16:22:43.589Z,68.40
2023-03-17T16:25:46.235Z,68.70
2023-03-17T16:28:49.030Z,68.60
2023-03-17T16:31:51.135Z,69.00
2023-03-17T16:34:52.856Z,69.10
2023-03-17T16:37:54.781Z,70.80
2023-03-17T16:41:09.479Z,68.60
2023-03-17T16:44:11.871Z,67.60
2023-03-17T16:47:13.763Z,69.40
2023-03-17T16:50:21.754Z,69.50
2023-03-17T16:53:24.769Z,69.90
2023-03-17T16:56:27.333Z,69.90
2023-03-17T16:59:31.341Z,69.90
2023-03-17T17:02:33.010Z,69.80
2023-03-17T17:05:34.808Z,70.00
2023-03-17T17:08:36.380Z,69.90
2023-03-17T17:11:37.947Z,70.10
2023-03-17T17:14:39.538Z,70.10
2023-03-17T17:17:44.427Z,70.20
2023-03-17T17:20:46.074Z,70.40
2023-03-17T17:23:47.816Z,70.70
2023-03-17T17:26:49.768Z,70.50
2023-03-17T17:29:51.328Z,69.80
2023-03-17T17:32:52.968Z,70.70
2023-03-17T17:35:54.621Z,70.50
2023-03-17T17:38:56.266Z,70.80
2023-03-17T17:41:57.808Z,70.80
2023-03-17T17:44:59.780Z,70.60
2023-03-17T17:48:01.645Z,70.60
2023-03-17T17:51:03.345Z,70.80
2023-03-17T17:54:06.156Z,71.60
2023-03-17T17:57:11.631Z,76.20
2023-03-17T18:00:17.400Z,71.10
2023-03-17T18:03:24.381Z,70.70
2023-03-17T18:06:26.129Z,70.80
2023-03-17T18:09:28.460Z,70.80
2023-03-17T18:12:30.635Z,70.40
2023-03-17T18:15:32.654Z,71.90
2023-03-17T18:18:34.281Z,71.20
2023-03-17T18:21:36.510Z,71.30
2023-03-17T18:24:38.166Z,71.40
2023-03-17T18:27:40.227Z,71.10
2023-03-17T18:30:44.440Z,71.70
2023-03-17T18:33:48.962Z,72.70
2023-03-17T18:36:51.899Z,71.90
2023-03-17T18:40:12.008Z,72.10
2023-03-17T18:43:14.468Z,71.90
2023-03-17T18:46:17.612Z,71.90
2023-03-17T18:49:19.380Z,72.50
2023-03-17T18:52:24.534Z,72.30
2023-03-17T18:55:28.470Z,72.90
2023-03-17T18:58:31.109Z,73.10
2023-03-17T19:01:32.932Z,73.30
2023-03-17T19:04:34.554Z,73.30
2023-03-17T19:07:37.945Z,73.40
2023-03-17T19:10:43.809Z,73.60
2023-03-17T19:13:45.560Z,73.90
2023-03-17T19:16:47.185Z,73.50
2023-03-17T19:19:50.428Z,73.80
2023-03-17T19:22:53.247Z,73.80
2023-03-17T19:25:54.842Z,73.90
2023-03-17T19:28:56.593Z,73.80
2023-03-17T19:31:58.226Z,74.50
2023-03-17T19:34:59.832Z,73.70
2023-03-17T19:38:03.299Z,74.20
2023-03-17T19:41:05.786Z,73.70
2023-03-17T19:44:07.586Z,74.50
2023-03-17T19:47:09.223Z,74.30
2023-03-17T19:50:11.396Z,74.00
2023-03-17T19:53:13.144Z,73.10
2023-03-17T19:56:15.238Z,73.90
2023-03-17T19:59:17.476Z,73.80
2023-03-17T20:02:20.316Z,73.80
2023-03-17T20:05:25.398Z,73.80
2023-03-17T20:08:45.325Z,73.40
2023-03-17T20:11:46.936Z,75.70
2023-03-17T20:15:37.448Z,73.90
2023-03-17T20:18:12.694Z,73.80
2023-03-17T20:21:32.226Z,73.80
2023-03-17T20:24:34.583Z,73.50
2023-03-17T20:27:39.471Z,74.90
2023-03-17T20:30:56.975Z,73.90
2023-03-17T20:33:58.802Z,72.60
2023-03-17T20:37:02.084Z,73.80
2023-03-17T20:40:07.899Z,74.00
2023-03-17T20:43:09.714Z,73.50
2023-03-17T20:46:17.719Z,73.70
2023-03-17T20:49:19.326Z,74.00
2023-03-17T20:52:22.241Z,73.70
2023-03-17T20:55:26.606Z,74.40
2023-03-17T20:58:28.685Z,73.40
2023-03-17T21:01:31.831Z,74.20
2023-03-17T21:04:33.581Z,75.60
2023-03-17T21:07:35.176Z,74.80
2023-03-17T21:10:36.774Z,75.20
2023-03-17T21:13:38.638Z,75.60
2023-03-17T21:16:42.561Z,76.60
2023-03-17T21:19:44.701Z,77.30
2023-03-17T21:22:46.848Z,76.20
2023-03-17T21:25:52.642Z,78.10
2023-03-17T21:28:55.251Z,78.50
2023-03-17T21:31:58.636Z,79.60
2023-03-17T21:35:02.550Z,79.20
2023-03-17T21:38:04.723Z,79.00
2023-03-17T21:41:30.452Z,78.80
2023-03-17T21:44:32.432Z,78.00
2023-03-17T21:47:36.118Z,80.70
2023-03-17T21:50:38.412Z,79.20
2023-03-17T21:53:40.322Z,79.30
2023-03-17T21:56:42.753Z,80.60
2023-03-17T21:59:45.412Z,79.20
2023-03-17T22:02:47.069Z,79.30
2023-03-17T22:05:51.164Z,79.40
2023-03-17T22:08:52.697Z,80.00
2023-03-17T22:11:55.297Z,79.60
2023-03-17T22:14:58.218Z,79.70
2023-03-17T22:17:59.923Z,79.60
2023-03-17T22:21:02.092Z,80.50
2023-03-17T22:24:03.853Z,79.70
2023-03-17T22:27:05.956Z,79.90
2023-03-17T22:30:08.202Z,80.80
2023-03-17T22:33:10.414Z,79.60
2023-03-17T22:36:12.427Z,80.10
2023-03-17T22:39:14.180Z,80.80
2023-03-17T22:42:16.092Z,80.40
2023-03-17T22:45:17.746Z,81.60
2023-03-17T22:48:19.325Z,81.20
2023-03-17T22:51:24.147Z,81.70
2023-03-17T22:54:25.958Z,82.90
2023-03-17T22:57:27.496Z,82.10
2023-03-17T23:00:31.229Z,82.80
2023-03-17T23:03:33.867Z,82.80
2023-03-17T23:06:37.889Z,83.70
2023-03-17T23:09:41.307Z,83.30
2023-03-17T23:12:43.899Z,83.40
2023-03-17T23:15:46.957Z,84.20
2023-03-17T23:18:48.708Z,83.80
2023-03-17T23:21:50.680Z,83.70
2023-03-17T23:24:53.113Z,83.80
2023-03-17T23:27:54.951Z,83.80
2023-03-17T23:30:56.498Z,84.00
2023-03-17T23:33:58.153Z,84.00
2023-03-17T23:36:59.692Z,83.60
2023-03-17T23:40:01.802Z,83.80
2023-03-17T23:43:05.555Z,83.90
2023-03-17T23:46:07.543Z,85.40
2023-03-17T23:49:09.113Z,84.50
2023-03-17T23:52:11.556Z,84.30
2023-03-17T23:55:13.844Z,84.30
2023-03-17T23:58:15.976Z,85.10
